createdAt,value
2022-10-19T00:02:11.685Z,2.62
2022-10-19T00:04:41.451Z,2.47
2022-10-19T00:07:11.170Z,2.43
2022-10-19T00:09:40.910Z,3.03
2022-10-19T00:12:13.202Z,2.80
2022-10-19T00:14:42.950Z,2.90
2022-10-19T00:17:12.695Z,2.93
2022-10-19T00:19:42.819Z,2.40
2022-10-19T00:22:14.028Z,2.83
2022-10-19T00:24:44.006Z,3.10
2022-10-19T00:27:13.735Z,2.53
2022-10-19T00:29:43.679Z,2.53
2022-10-19T00:32:13.250Z,2.37
2022-10-19T00:34:43.047Z,2.60
2022-10-19T00:37:12.769Z,2.50
2022-10-19T00:39:42.570Z,3.00
2022-10-19T00:42:13.418Z,2.90
2022-10-19T00:44:48.981Z,2.27
2022-10-19T00:47:21.564Z,2.20
2022-10-19T00:49:52.149Z,3.42
2022-10-19T00:52:24.849Z,2.58
2022-10-19T00:54:56.426Z,2.63
2022-10-19T00:57:29.520Z,2.60
2022-10-19T01:00:02.419Z,3.00
2022-10-19T01:02:32.532Z,2.60
2022-10-19T01:05:03.107Z,2.63
2022-10-19T01:07:33.506Z,2.90
2022-10-19T01:10:04.643Z,2.60
2022-10-19T01:12:46.467Z,2.40
2022-10-19T01:15:41.492Z,2.22
2022-10-19T01:18:29.276Z,2.42
2022-10-19T01:21:04.620Z,2.70
2022-10-19T01:23:55.583Z,2.33
2022-10-19T01:26:47.106Z,1.93
2022-10-19T01:29:36.262Z,2.10
2022-10-19T01:32:23.309Z,2.17
2022-10-19T01:35:20.080Z,2.72
2022-10-19T01:37:55.472Z,2.30
2022-10-19T01:43:16.229Z,2.25
2022-10-19T01:46:00.811Z,2.80
2022-10-19T01:48:33.454Z,3.30
2022-10-19T01:51:17.940Z,3.00
2022-10-19T01:53:50.839Z,2.83
2022-10-19T01:56:23.755Z,2.62
2022-10-19T01:58:56.267Z,2.62
2022-10-19T02:01:28.357Z,3.37
2022-10-19T02:03:59.411Z,4.77
2022-10-19T02:06:29.755Z,3.70
2022-10-19T02:09:00.013Z,4.75
2022-10-19T02:11:31.187Z,3.90
2022-10-19T02:14:03.974Z,3.93
2022-10-19T02:16:39.759Z,4.28
2022-10-19T02:19:10.939Z,3.63
2022-10-19T02:21:41.405Z,3.57
2022-10-19T02:24:12.949Z,4.40
2022-10-19T02:26:43.521Z,5.20
2022-10-19T02:29:15.871Z,4.03
2022-10-19T02:31:46.133Z,4.07
2022-10-19T02:34:16.058Z,4.00
2022-10-19T02:36:45.838Z,3.53
2022-10-19T02:39:15.639Z,3.63
2022-10-19T02:41:51.100Z,3.80
2022-10-19T02:44:23.643Z,4.50
2022-10-19T02:46:56.707Z,4.03
2022-10-19T02:49:28.172Z,3.63
2022-10-19T02:52:02.552Z,4.17
2022-10-19T02:54:32.301Z,3.77
2022-10-19T02:57:03.368Z,4.03
2022-10-19T02:59:33.396Z,3.95
2022-10-19T03:02:03.184Z,3.77
2022-10-19T03:04:32.986Z,3.37
2022-10-19T03:07:02.820Z,4.30
2022-10-19T03:09:32.257Z,4.03
2022-10-19T03:12:01.993Z,4.30
2022-10-19T03:14:31.736Z,3.30
2022-10-19T03:17:01.197Z,3.50
2022-10-19T03:19:31.468Z,3.50
2022-10-19T03:22:01.508Z,3.40
2022-10-19T03:24:34.469Z,3.60
2022-10-19T03:27:03.988Z,3.25
2022-10-19T03:29:33.717Z,3.00
2022-10-19T03:32:03.594Z,3.07
2022-10-19T03:34:33.633Z,3.25
2022-10-19T03:37:03.367Z,3.43
2022-10-19T03:39:33.384Z,3.30
2022-10-19T03:42:03.207Z,3.37
2022-10-19T03:44:33.014Z,3.67
2022-10-19T03:47:02.749Z,3.50
2022-10-19T03:49:34.626Z,3.92
2022-10-19T03:52:05.389Z,3.40
2022-10-19T03:54:35.159Z,3.77
2022-10-19T03:57:04.936Z,3.77
2022-10-19T03:59:34.689Z,4.33
2022-10-19T04:02:04.955Z,4.10
2022-10-19T04:04:34.718Z,3.97
2022-10-19T04:07:04.433Z,4.00
2022-10-19T04:09:34.168Z,3.90
2022-10-19T04:12:04.714Z,4.40
2022-10-19T04:14:52.429Z,3.87
2022-10-19T04:17:06.318Z,4.10
2022-10-19T04:19:36.042Z,3.90
2022-10-19T04:22:07.723Z,4.30
2022-10-19T04:24:37.482Z,4.87
2022-10-19T04:27:07.247Z,5.10
2022-10-19T04:29:37.057Z,5.33
2022-10-19T04:32:08.203Z,5.40
2022-10-19T04:34:39.983Z,5.67
2022-10-19T04:37:09.362Z,5.83
2022-10-19T04:39:41.051Z,6.93
2022-10-19T04:42:12.285Z,6.46
2022-10-19T04:44:42.326Z,6.60
2022-10-19T04:47:12.441Z,7.00
2022-10-19T04:49:42.480Z,7.37
2022-10-19T04:52:13.873Z,6.75
2022-10-19T04:54:43.961Z,6.42
2022-10-19T04:57:13.778Z,6.47
2022-10-19T04:59:43.800Z,6.62
2022-10-19T05:02:13.531Z,6.97
2022-10-19T05:04:45.169Z,7.03
2022-10-19T05:07:14.690Z,6.80
2022-10-19T05:09:44.437Z,6.50
2022-10-19T05:12:14.191Z,6.55
2022-10-19T05:14:43.954Z,6.50
2022-10-19T05:17:13.767Z,6.30
2022-10-19T05:19:43.857Z,5.53
2022-10-19T05:22:13.599Z,5.45
2022-10-19T05:24:43.627Z,5.30
2022-10-19T05:27:13.364Z,5.30
2022-10-19T05:29:43.153Z,4.30
2022-10-19T05:32:13.006Z,4.40
2022-10-19T05:34:42.796Z,4.40
2022-10-19T05:37:12.521Z,4.53
2022-10-19T05:39:42.530Z,5.00
2022-10-19T05:42:12.498Z,4.72
2022-10-19T05:44:42.507Z,4.70
2022-10-19T05:47:12.316Z,4.53
2022-10-19T05:49:42.340Z,4.40
2022-10-19T05:52:13.705Z,4.36
2022-10-19T05:54:43.727Z,4.70
2022-10-19T05:57:13.502Z,4.53
2022-10-19T05:59:43.546Z,4.40
2022-10-19T06:02:15.529Z,4.80
2022-10-19T06:04:45.314Z,4.00
2022-10-19T06:07:15.332Z,3.70
2022-10-19T06:09:45.920Z,4.70
2022-10-19T06:12:16.349Z,4.33
2022-10-19T06:17:16.180Z,4.60
2022-10-19T06:19:46.195Z,4.65
2022-10-19T06:22:16.034Z,5.10
2022-10-19T06:24:46.058Z,4.58
2022-10-19T06:27:15.586Z,4.75
2022-10-19T06:29:45.351Z,5.03
2022-10-19T06:32:15.398Z,5.13
2022-10-19T06:34:45.143Z,5.23
2022-10-19T06:37:14.910Z,5.30
2022-10-19T06:39:44.718Z,6.27
2022-10-19T06:42:15.533Z,6.70
2022-10-19T06:44:45.656Z,7.10
2022-10-19T06:47:15.702Z,8.15
2022-10-19T06:49:45.441Z,8.10
2022-10-19T06:52:15.366Z,8.15
2022-10-19T06:54:45.112Z,9.13
2022-10-19T06:57:14.860Z,8.83
2022-10-19T06:59:45.076Z,9.35
2022-10-19T07:02:14.649Z,9.80
2022-10-19T07:04:44.528Z,9.27
2022-10-19T07:07:14.291Z,10.60
2022-10-19T07:09:44.336Z,10.75
2022-10-19T07:12:13.889Z,11.57
2022-10-19T07:14:43.734Z,12.73
2022-10-19T07:17:13.658Z,12.57
2022-10-19T07:19:43.718Z,13.05
2022-10-19T07:22:19.150Z,13.20
2022-10-19T07:24:45.434Z,12.40
2022-10-19T07:27:15.596Z,12.90
2022-10-19T07:29:45.432Z,12.43
2022-10-19T07:32:15.258Z,12.60
2022-10-19T07:34:45.047Z,11.43
2022-10-19T07:37:14.771Z,10.97
2022-10-19T07:39:44.511Z,10.30
2022-10-19T07:42:14.129Z,9.70
2022-10-19T07:44:44.216Z,9.65
2022-10-19T07:47:14.271Z,8.58
2022-10-19T07:49:44.293Z,8.63
2022-10-19T07:52:14.121Z,8.70
2022-10-19T07:54:43.915Z,7.83
2022-10-19T07:57:13.656Z,7.57
2022-10-19T07:59:43.493Z,8.13
2022-10-19T08:02:17.972Z,8.07
2022-10-19T08:05:00.264Z,8.15
2022-10-19T08:07:19.583Z,7.90
2022-10-19T08:09:54.078Z,8.00
2022-10-19T08:12:20.986Z,7.30
2022-10-19T08:14:50.844Z,7.40
2022-10-19T08:17:20.665Z,7.27
2022-10-19T08:19:50.439Z,7.20
2022-10-19T08:22:20.199Z,7.43
2022-10-19T08:24:50.372Z,7.62
2022-10-19T08:27:20.126Z,7.40
2022-10-19T08:29:51.446Z,7.70
2022-10-19T08:32:21.422Z,7.30
2022-10-19T08:34:51.194Z,7.87
2022-10-19T08:37:40.128Z,6.97
2022-10-19T08:39:52.384Z,8.00
2022-10-19T08:42:25.196Z,7.40
2022-10-19T08:45:16.087Z,7.97
2022-10-19T08:48:00.846Z,8.10
2022-10-19T08:50:39.290Z,7.17
2022-10-19T08:53:18.000Z,6.83
2022-10-19T08:56:08.720Z,6.03
2022-10-19T08:58:56.086Z,5.37
2022-10-19T09:01:43.455Z,5.20
2022-10-19T09:04:26.759Z,5.03
2022-10-19T09:07:01.972Z,4.43
2022-10-19T09:09:34.180Z,3.80
2022-10-19T09:12:07.257Z,3.83
2022-10-19T09:14:54.697Z,3.80
2022-10-19T09:17:25.336Z,3.10
2022-10-19T09:19:55.110Z,3.07
2022-10-19T09:22:36.453Z,2.40
2022-10-19T09:25:21.653Z,2.83
2022-10-19T09:27:54.446Z,3.13
2022-10-19T09:30:25.651Z,2.65
2022-10-19T09:33:02.842Z,2.80
2022-10-19T09:35:38.145Z,2.60
2022-10-19T09:38:08.402Z,2.30
2022-10-19T09:40:38.214Z,1.93
2022-10-19T09:43:11.580Z,2.17
2022-10-19T09:46:13.889Z,2.43
2022-10-19T09:48:53.118Z,2.63
2022-10-19T09:51:23.730Z,2.10
2022-10-19T09:53:59.695Z,3.43
2022-10-19T09:56:29.506Z,1.98
2022-10-19T09:58:59.933Z,2.03
2022-10-19T10:01:41.691Z,1.87
2022-10-19T10:04:09.852Z,1.30
2022-10-19T10:06:40.614Z,1.20
2022-10-19T10:09:19.142Z,1.00
2022-10-19T10:11:51.729Z,1.10
2022-10-19T10:14:31.646Z,1.12
2022-10-19T10:17:07.697Z,1.37
2022-10-19T10:19:37.908Z,0.83
2022-10-19T10:22:10.688Z,0.93
2022-10-19T10:24:43.476Z,1.67
2022-10-19T10:27:16.263Z,1.43
2022-10-19T10:29:49.354Z,1.00
2022-10-19T10:32:22.737Z,0.83
2022-10-19T10:35:04.703Z,1.00
2022-10-19T10:37:46.320Z,1.77
2022-10-19T10:40:23.648Z,1.20
2022-10-19T10:42:55.915Z,2.10
2022-10-19T10:45:43.164Z,1.10
2022-10-19T10:48:31.814Z,0.90
2022-10-19T10:51:02.987Z,0.90
2022-10-19T10:53:39.200Z,1.00
2022-10-19T10:56:16.383Z,0.98
2022-10-19T10:58:49.181Z,0.88
2022-10-19T11:01:24.740Z,1.30
2022-10-19T11:03:57.821Z,0.80
2022-10-19T11:06:27.603Z,0.97
2022-10-19T11:09:28.465Z,1.00
2022-10-19T11:12:01.535Z,1.15
2022-10-19T11:14:39.734Z,1.02
2022-10-19T11:17:12.523Z,0.90
2022-10-19T11:19:45.250Z,1.17
2022-10-19T11:22:37.964Z,1.10
2022-10-19T11:25:29.080Z,1.03
2022-10-19T11:28:11.409Z,1.12
2022-10-19T11:31:02.205Z,1.40
2022-10-19T11:36:27.362Z,1.40
2022-10-19T11:39:02.886Z,1.80
2022-10-19T11:41:44.085Z,1.40
2022-10-19T11:44:31.434Z,1.52
2022-10-19T11:47:12.355Z,1.60
2022-10-19T11:55:21.829Z,1.50
2022-10-19T11:58:07.369Z,1.42
2022-10-19T12:00:48.927Z,1.60
2022-10-19T12:03:24.909Z,1.30
2022-10-19T12:06:07.593Z,1.43
2022-10-19T12:08:58.247Z,1.20
2022-10-19T12:11:45.926Z,1.37
2022-10-19T12:14:42.038Z,1.26
2022-10-19T12:17:17.331Z,1.10
2022-10-19T12:19:53.080Z,1.40
2022-10-19T12:22:25.888Z,1.80
2022-10-19T12:24:57.799Z,1.87
2022-10-19T12:27:39.858Z,2.37
2022-10-19T12:30:18.264Z,1.57
2022-10-19T12:33:07.058Z,1.50
2022-10-19T12:35:45.615Z,1.50
2022-10-19T12:38:21.238Z,1.85
2022-10-19T12:40:54.012Z,2.00
2022-10-19T12:43:29.850Z,1.98
2022-10-19T12:46:24.719Z,2.43
2022-10-19T12:49:29.473Z,3.20
2022-10-19T12:52:01.567Z,2.50
2022-10-19T12:54:34.877Z,2.08
2022-10-19T12:57:07.440Z,2.30
2022-10-19T12:59:38.400Z,1.92
2022-10-19T13:02:11.189Z,1.80
2022-10-19T13:04:42.431Z,1.70
2022-10-19T13:07:15.513Z,1.70
2022-10-19T13:09:48.349Z,2.10
2022-10-19T13:12:25.637Z,1.73
2022-10-19T13:15:05.014Z,1.70
2022-10-19T13:17:38.117Z,1.80
2022-10-19T13:20:19.645Z,1.30
2022-10-19T13:23:04.271Z,1.55
2022-10-19T13:25:41.007Z,1.60
2022-10-19T13:30:44.973Z,1.57
2022-10-19T13:33:31.699Z,1.30
2022-10-19T13:36:04.561Z,1.17
2022-10-19T13:41:25.578Z,1.67
2022-10-19T13:44:14.287Z,1.60
2022-10-19T13:47:06.684Z,1.37
2022-10-19T13:49:57.425Z,1.80
2022-10-19T13:52:57.016Z,1.33
2022-10-19T13:55:47.322Z,1.40
2022-10-19T13:58:30.279Z,1.30
2022-10-19T14:01:24.066Z,1.43
2022-10-19T14:04:05.739Z,1.50
2022-10-19T14:06:41.308Z,1.40
2022-10-19T14:09:16.848Z,1.67
2022-10-19T14:11:49.161Z,1.50
2022-10-19T14:14:24.325Z,1.47
2022-10-19T14:16:59.703Z,1.57
2022-10-19T14:19:31.546Z,1.83
2022-10-19T14:22:04.322Z,1.50
2022-10-19T14:24:36.896Z,1.30
2022-10-19T14:27:08.556Z,1.37
2022-10-19T14:29:50.334Z,1.50
2022-10-19T14:32:28.635Z,1.70
2022-10-19T14:35:01.281Z,1.50
2022-10-19T14:37:31.158Z,1.30
2022-10-19T14:40:06.814Z,1.73
2022-10-19T14:42:44.806Z,1.50
2022-10-19T14:45:23.029Z,1.62
2022-10-19T14:48:02.074Z,1.82
2022-10-19T14:50:52.774Z,1.82
2022-10-19T14:53:40.490Z,1.80
2022-10-19T14:56:18.857Z,1.90
2022-10-19T14:58:51.628Z,1.83
2022-10-19T15:01:22.153Z,1.90
2022-10-19T15:03:52.489Z,1.53
2022-10-19T15:06:27.658Z,1.60
2022-10-19T15:09:00.783Z,1.80
2022-10-19T15:11:36.175Z,1.90
2022-10-19T15:14:08.665Z,2.20
2022-10-19T15:16:46.883Z,2.10
2022-10-19T15:19:21.921Z,2.15
2022-10-19T15:22:10.392Z,2.20
2022-10-19T15:24:41.390Z,2.43
2022-10-19T15:27:13.797Z,2.60
2022-10-19T15:29:46.587Z,2.67
2022-10-19T15:32:22.780Z,2.55
2022-10-19T15:34:52.927Z,2.77
2022-10-19T15:37:27.920Z,2.70
2022-10-19T15:39:56.302Z,2.53
2022-10-19T15:42:44.234Z,3.40
2022-10-19T15:45:38.518Z,3.22
2022-10-19T15:48:28.158Z,2.70
2022-10-19T15:50:58.756Z,2.65
2022-10-19T15:53:28.961Z,2.87
2022-10-19T15:55:59.728Z,2.57
2022-10-19T15:58:29.480Z,3.13
2022-10-19T16:00:59.024Z,2.95
2022-10-19T16:03:28.769Z,2.50
2022-10-19T16:05:58.481Z,2.47
2022-10-19T16:08:28.288Z,3.27
2022-10-19T16:10:58.034Z,2.53
2022-10-19T16:13:27.612Z,3.15
2022-10-19T16:16:10.632Z,3.22
2022-10-19T16:18:34.815Z,2.77
2022-10-19T16:21:04.903Z,2.83
2022-10-19T16:23:39.382Z,3.50
2022-10-19T16:26:08.691Z,3.45
2022-10-19T16:28:38.852Z,3.50
2022-10-19T16:31:08.769Z,3.10
2022-10-19T16:33:38.597Z,3.53
2022-10-19T16:36:09.377Z,3.17
2022-10-19T16:38:39.124Z,2.90
2022-10-19T16:41:10.991Z,3.07
2022-10-19T16:43:41.198Z,3.00
2022-10-19T16:46:11.645Z,3.30
2022-10-19T16:48:41.426Z,3.23
2022-10-19T16:51:14.208Z,3.60
2022-10-19T16:53:43.707Z,3.00
2022-10-19T16:56:15.234Z,3.22
2022-10-19T16:58:44.685Z,3.65
2022-10-19T17:01:17.580Z,3.50
2022-10-19T17:03:48.541Z,3.73
2022-10-19T17:06:19.209Z,3.30
2022-10-19T17:11:24.181Z,3.57
2022-10-19T17:13:56.678Z,3.13
2022-10-19T17:16:28.239Z,3.30
2022-10-19T17:19:00.217Z,3.10
2022-10-19T17:21:32.494Z,3.23
2022-10-19T17:24:05.352Z,4.23
2022-10-19T17:26:38.419Z,2.20
2022-10-19T17:29:08.826Z,2.40
2022-10-19T17:31:39.995Z,2.70
2022-10-19T17:34:12.108Z,3.01
2022-10-19T17:36:44.996Z,2.70
2022-10-19T17:39:18.166Z,2.58
2022-10-19T17:41:49.037Z,2.50
2022-10-19T17:44:21.032Z,2.33
2022-10-19T17:46:51.076Z,3.27
2022-10-19T17:49:21.094Z,2.92
2022-10-19T17:51:53.367Z,3.27
2022-10-19T17:54:23.211Z,2.83
2022-10-19T17:56:53.038Z,2.90
2022-10-19T17:59:34.609Z,2.80
2022-10-19T18:01:54.211Z,3.10
2022-10-19T18:04:24.003Z,2.58
2022-10-19T18:06:54.072Z,3.83
2022-10-19T18:09:23.821Z,3.53
2022-10-19T18:11:53.572Z,2.97
2022-10-19T18:14:23.205Z,3.52
2022-10-19T18:16:53.301Z,3.58
2022-10-19T18:19:23.138Z,3.53
2022-10-19T18:21:53.317Z,3.40
2022-10-19T18:24:23.067Z,2.90
2022-10-19T18:26:53.083Z,3.40
2022-10-19T18:29:25.369Z,3.20
2022-10-19T18:31:55.529Z,3.10
2022-10-19T18:34:27.202Z,3.15
2022-10-19T18:36:56.964Z,3.30
2022-10-19T18:39:26.711Z,3.50
2022-10-19T18:41:56.545Z,2.87
2022-10-19T18:44:27.373Z,3.00
2022-10-19T18:46:58.730Z,3.05
2022-10-19T18:49:28.513Z,3.97
2022-10-19T18:51:58.241Z,3.07
2022-10-19T18:54:28.130Z,3.63
2022-10-19T18:56:58.217Z,3.52
2022-10-19T19:01:58.366Z,3.35
2022-10-19T19:04:27.809Z,3.53
2022-10-19T19:06:57.549Z,3.33
2022-10-19T19:09:27.289Z,3.37
2022-10-19T19:11:58.339Z,3.63
2022-10-19T19:14:28.342Z,3.52
2022-10-19T19:16:58.095Z,3.20
2022-10-19T19:19:29.201Z,2.87
2022-10-19T19:22:01.627Z,2.90
2022-10-19T19:24:32.705Z,3.70
2022-10-19T19:27:02.459Z,3.50
2022-10-19T19:29:32.272Z,2.97
2022-10-19T19:32:02.538Z,3.20
2022-10-19T19:34:32.278Z,3.50
2022-10-19T19:37:04.102Z,2.92
2022-10-19T19:39:33.755Z,2.93
2022-10-19T19:42:05.296Z,3.00
2022-10-19T19:44:35.044Z,3.13
2022-10-19T19:47:05.750Z,3.10
2022-10-19T19:49:35.486Z,2.77
2022-10-19T19:52:06.559Z,3.20
2022-10-19T19:54:36.279Z,3.23
2022-10-19T19:57:07.593Z,3.07
2022-10-19T19:59:37.660Z,2.80
2022-10-19T20:02:07.671Z,3.20
2022-10-19T20:04:37.477Z,3.27
2022-10-19T20:07:06.963Z,3.10
2022-10-19T20:09:36.710Z,2.77
2022-10-19T20:12:08.073Z,3.10
2022-10-19T20:14:37.804Z,3.23
2022-10-19T20:17:07.549Z,2.90
2022-10-19T20:19:37.409Z,3.13
2022-10-19T20:22:07.545Z,2.63
2022-10-19T20:24:37.832Z,3.60
2022-10-19T20:27:07.663Z,3.13
2022-10-19T20:29:37.410Z,2.93
2022-10-19T20:32:08.341Z,3.10
2022-10-19T20:34:38.178Z,3.10
2022-10-19T20:37:07.943Z,3.10
2022-10-19T20:39:37.747Z,2.70
2022-10-19T20:42:08.622Z,3.40
2022-10-19T20:44:38.356Z,3.07
2022-10-19T20:47:07.899Z,2.80
2022-10-19T20:49:38.081Z,3.03
2022-10-19T20:52:08.739Z,3.08
2022-10-19T20:54:38.483Z,3.23
2022-10-19T20:57:08.229Z,3.40
2022-10-19T20:59:39.449Z,5.17
2022-10-19T21:05:20.892Z,3.87
2022-10-19T21:07:50.626Z,3.20
2022-10-19T21:10:20.371Z,3.20
2022-10-19T21:12:49.842Z,3.00
2022-10-19T21:15:19.586Z,3.12
2022-10-19T21:17:49.331Z,3.23
2022-10-19T21:20:20.245Z,2.80
2022-10-19T21:22:50.292Z,3.77
2022-10-19T21:25:19.897Z,3.37
2022-10-19T21:27:52.548Z,3.40
2022-10-19T21:30:22.630Z,3.66
2022-10-19T21:32:52.383Z,4.43
2022-10-19T21:35:21.811Z,3.75
2022-10-19T21:37:51.575Z,3.87
2022-10-19T21:40:21.335Z,3.86
2022-10-19T21:42:51.374Z,3.60
2022-10-19T21:45:35.761Z,3.50
2022-10-19T21:47:52.310Z,4.30
2022-10-19T21:50:22.028Z,3.80
2022-10-19T21:52:51.766Z,3.50
2022-10-19T21:55:21.497Z,3.40
2022-10-19T21:57:50.977Z,3.60
2022-10-19T22:00:20.540Z,3.50
2022-10-19T22:02:50.354Z,3.80
2022-10-19T22:05:19.809Z,3.23
2022-10-19T22:07:49.621Z,3.77
2022-10-19T22:10:19.318Z,3.80
2022-10-19T22:12:49.146Z,3.37
2022-10-19T22:15:18.874Z,3.60
2022-10-19T22:17:48.666Z,3.90
2022-10-19T22:20:18.427Z,4.00
2022-10-19T22:22:50.270Z,3.85
2022-10-19T22:25:19.071Z,4.05
2022-10-19T22:27:48.859Z,3.87
2022-10-19T22:30:18.777Z,4.78
2022-10-19T22:32:48.570Z,4.10
2022-10-19T22:35:18.394Z,3.93
2022-10-19T22:37:47.872Z,4.00
2022-10-19T22:40:17.603Z,4.15
2022-10-19T22:42:47.333Z,4.10
2022-10-19T22:45:17.041Z,4.47
2022-10-19T22:47:46.770Z,3.83
2022-10-19T22:50:17.248Z,4.30
2022-10-19T22:52:46.955Z,4.50
2022-10-19T22:55:16.589Z,4.22
2022-10-19T22:57:46.328Z,4.57
2022-10-19T23:00:17.661Z,4.23
2022-10-19T23:02:47.391Z,4.40
2022-10-19T23:05:16.971Z,4.23
2022-10-19T23:07:46.714Z,4.63
2022-10-19T23:10:17.853Z,4.15
2022-10-19T23:12:52.537Z,4.50
2022-10-19T23:15:22.509Z,4.47
2022-10-19T23:17:52.297Z,4.40
2022-10-19T23:20:21.730Z,4.60
2022-10-19T23:22:51.725Z,4.03
2022-10-19T23:25:21.497Z,4.70
2022-10-19T23:27:51.261Z,4.57
2022-10-19T23:30:21.082Z,4.30
2022-10-19T23:32:50.878Z,5.03
2022-10-19T23:35:20.630Z,4.62
2022-10-19T23:37:50.405Z,4.50
2022-10-19T23:40:20.074Z,4.65
2022-10-19T23:42:49.815Z,5.03
2022-10-19T23:45:19.610Z,5.30
2022-10-19T23:47:49.640Z,5.12
2022-10-19T23:50:19.396Z,5.03
2022-10-19T23:52:49.437Z,4.80
2022-10-19T23:55:19.146Z,5.30
2022-10-19T23:57:48.892Z,5.10
